sensor_id;sensor_type;location;lat;lon;timestamp;P1;durP1;ratioP1;P2;durP2;ratioP2
5961;SDS011;3007;50.770;0.250;2023-03-01T00:01:39;17.53;;;12.00;;
5961;SDS011;3007;50.770;0.250;2023-03-01T00:04:08;18.93;;;13.83;;
5961;SDS011;3007;50.770;0.250;2023-03-01T00:06:34;20.60;;;12.90;;
5961;SDS011;3007;50.770;0.250;2023-03-01T00:09:02;20.70;;;14.27;;
5961;SDS011;3007;50.770;0.250;2023-03-01T00:11:30;23.53;;;14.03;;
5961;SDS011;3007;50.770;0.250;2023-03-01T00:14:02;23.10;;;14.60;;
5961;SDS011;3007;50.770;0.250;2023-03-01T00:16:33;19.30;;;13.87;;
5961;SDS011;3007;50.770;0.250;2023-03-01T00:19:03;20.23;;;13.43;;
5961;SDS011;3007;50.770;0.250;2023-03-01T00:21:32;20.47;;;14.00;;
5961;SDS011;3007;50.770;0.250;2023-03-01T00:24:00;21.97;;;14.13;;
5961;SDS011;3007;50.770;0.250;2023-03-01T00:26:27;20.73;;;14.47;;
5961;SDS011;3007;50.770;0.250;2023-03-01T00:28:54;20.30;;;15.00;;
5961;SDS011;3007;50.770;0.250;2023-03-01T00:31:24;19.77;;;14.10;;
5961;SDS011;3007;50.770;0.250;2023-03-01T00:33:53;22.27;;;14.57;;
5961;SDS011;3007;50.770;0.250;2023-03-01T00:36:22;22.90;;;15.23;;
5961;SDS011;3007;50.770;0.250;2023-03-01T00:38:51;21.53;;;14.57;;
5961;SDS011;3007;50.770;0.250;2023-03-01T00:41:18;24.43;;;16.57;;
5961;SDS011;3007;50.770;0.250;2023-03-01T00:43:50;22.87;;;17.27;;
5961;SDS011;3007;50.770;0.250;2023-03-01T00:46:17;20.60;;;14.80;;
5961;SDS011;3007;50.770;0.250;2023-03-01T00:48:45;24.17;;;16.67;;
5961;SDS011;3007;50.770;0.250;2023-03-01T00:51:13;26.57;;;15.37;;
5961;SDS011;3007;50.770;0.250;2023-03-01T00:53:42;20.93;;;15.27;;
5961;SDS011;3007;50.770;0.250;2023-03-01T00:56:12;25.73;;;15.87;;
5961;SDS011;3007;50.770;0.250;2023-03-01T00:58:40;24.03;;;16.70;;
5961;SDS011;3007;50.770;0.250;2023-03-01T01:01:08;24.53;;;17.50;;
5961;SDS011;3007;50.770;0.250;2023-03-01T01:03:42;22.73;;;16.23;;
5961;SDS011;3007;50.770;0.250;2023-03-01T01:06:14;24.73;;;16.37;;
5961;SDS011;3007;50.770;0.250;2023-03-01T01:08:42;23.67;;;16.47;;
5961;SDS011;3007;50.770;0.250;2023-03-01T01:11:11;25.03;;;16.83;;
5961;SDS011;3007;50.770;0.250;2023-03-01T01:13:39;24.00;;;16.97;;
5961;SDS011;3007;50.770;0.250;2023-03-01T01:16:10;26.73;;;18.30;;
5961;SDS011;3007;50.770;0.250;2023-03-01T01:18:37;22.77;;;16.83;;
5961;SDS011;3007;50.770;0.250;2023-03-01T01:21:05;24.90;;;16.80;;
5961;SDS011;3007;50.770;0.250;2023-03-01T01:23:33;25.90;;;16.50;;
5961;SDS011;3007;50.770;0.250;2023-03-01T01:26:04;28.13;;;18.17;;
5961;SDS011;3007;50.770;0.250;2023-03-01T01:28:33;23.60;;;17.07;;
5961;SDS011;3007;50.770;0.250;2023-03-01T01:31:00;25.10;;;17.77;;
5961;SDS011;3007;50.770;0.250;2023-03-01T01:33:27;25.73;;;17.77;;
5961;SDS011;3007;50.770;0.250;2023-03-01T01:35:54;26.53;;;18.50;;
5961;SDS011;3007;50.770;0.250;2023-03-01T01:38:23;27.50;;;18.30;;
5961;SDS011;3007;50.770;0.250;2023-03-01T01:40:50;25.23;;;17.67;;
5961;SDS011;3007;50.770;0.250;2023-03-01T01:43:19;29.27;;;18.40;;
5961;SDS011;3007;50.770;0.250;2023-03-01T01:45:49;28.87;;;18.70;;
5961;SDS011;3007;50.770;0.250;2023-03-01T01:48:18;28.70;;;18.27;;
5961;SDS011;3007;50.770;0.250;2023-03-01T01:50:50;29.37;;;18.73;;
5961;SDS011;3007;50.770;0.250;2023-03-01T01:53:20;24.40;;;17.17;;
5961;SDS011;3007;50.770;0.250;2023-03-01T01:55:49;28.20;;;17.60;;
5961;SDS011;3007;50.770;0.250;2023-03-01T01:58:22;25.63;;;18.27;;
5961;SDS011;3007;50.770;0.250;2023-03-01T02:00:51;23.93;;;16.80;;
5961;SDS011;3007;50.770;0.250;2023-03-01T02:03:22;25.23;;;17.83;;
5961;SDS011;3007;50.770;0.250;2023-03-01T02:05:55;25.70;;;17.40;;
5961;SDS011;3007;50.770;0.250;2023-03-01T02:08:27;24.27;;;17.83;;
5961;SDS011;3007;50.770;0.250;2023-03-01T02:10:56;23.60;;;16.57;;
5961;SDS011;3007;50.770;0.250;2023-03-01T02:13:25;24.97;;;17.70;;
5961;SDS011;3007;50.770;0.250;2023-03-01T02:15:53;24.83;;;16.93;;
5961;SDS011;3007;50.770;0.250;2023-03-01T02:18:21;21.87;;;15.93;;
5961;SDS011;3007;50.770;0.250;2023-03-01T02:20:52;25.03;;;16.67;;
5961;SDS011;3007;50.770;0.250;2023-03-01T02:23:34;22.33;;;16.87;;
5961;SDS011;3007;50.770;0.250;2023-03-01T02:26:04;23.40;;;17.90;;
5961;SDS011;3007;50.770;0.250;2023-03-01T02:28:38;22.37;;;16.50;;
5961;SDS011;3007;50.770;0.250;2023-03-01T02:31:07;23.83;;;18.23;;
5961;SDS011;3007;50.770;0.250;2023-03-01T02:33:52;24.30;;;17.60;;
5961;SDS011;3007;50.770;0.250;2023-03-01T02:36:21;22.13;;;16.00;;
5961;SDS011;3007;50.770;0.250;2023-03-01T02:38:51;23.40;;;17.73;;
5961;SDS011;3007;50.770;0.250;2023-03-01T02:41:21;24.70;;;17.37;;
5961;SDS011;3007;50.770;0.250;2023-03-01T02:43:50;22.27;;;16.43;;
5961;SDS011;3007;50.770;0.250;2023-03-01T02:46:18;23.60;;;16.30;;
5961;SDS011;3007;50.770;0.250;2023-03-01T02:48:47;23.27;;;16.33;;
5961;SDS011;3007;50.770;0.250;2023-03-01T02:51:24;24.57;;;17.57;;
5961;SDS011;3007;50.770;0.250;2023-03-01T02:54:04;21.97;;;16.70;;
5961;SDS011;3007;50.770;0.250;2023-03-01T02:56:36;23.80;;;17.10;;
5961;SDS011;3007;50.770;0.250;2023-03-01T02:59:05;20.60;;;15.87;;
5961;SDS011;3007;50.770;0.250;2023-03-01T03:01:32;23.17;;;16.43;;
5961;SDS011;3007;50.770;0.250;2023-03-01T03:04:03;24.03;;;17.83;;
5961;SDS011;3007;50.770;0.250;2023-03-01T03:06:31;24.67;;;16.70;;
5961;SDS011;3007;50.770;0.250;2023-03-01T03:08:58;23.07;;;16.70;;
5961;SDS011;3007;50.770;0.250;2023-03-01T03:11:25;22.60;;;17.17;;
5961;SDS011;3007;50.770;0.250;2023-03-01T03:13:52;22.30;;;16.57;;
5961;SDS011;3007;50.770;0.250;2023-03-01T03:16:20;23.37;;;16.47;;
5961;SDS011;3007;50.770;0.250;2023-03-01T03:18:48;21.63;;;16.07;;
5961;SDS011;3007;50.770;0.250;2023-03-01T03:21:15;25.40;;;16.93;;
5961;SDS011;3007;50.770;0.250;2023-03-01T03:23:42;24.33;;;17.50;;
5961;SDS011;3007;50.770;0.250;2023-03-01T03:26:09;23.93;;;17.17;;
5961;SDS011;3007;50.770;0.250;2023-03-01T03:28:38;21.70;;;17.17;;
5961;SDS011;3007;50.770;0.250;2023-03-01T03:31:06;26.80;;;17.47;;
5961;SDS011;3007;50.770;0.250;2023-03-01T03:33:35;25.53;;;16.93;;
5961;SDS011;3007;50.770;0.250;2023-03-01T03:36:02;23.20;;;16.77;;
5961;SDS011;3007;50.770;0.250;2023-03-01T03:38:29;24.57;;;16.87;;
5961;SDS011;3007;50.770;0.250;2023-03-01T03:41:00;27.67;;;17.63;;
5961;SDS011;3007;50.770;0.250;2023-03-01T03:43:29;24.27;;;17.97;;
5961;SDS011;3007;50.770;0.250;2023-03-01T03:45:57;25.27;;;16.57;;
5961;SDS011;3007;50.770;0.250;2023-03-01T03:48:24;26.73;;;18.43;;
5961;SDS011;3007;50.770;0.250;2023-03-01T03:50:53;21.67;;;16.97;;
5961;SDS011;3007;50.770;0.250;2023-03-01T03:53:22;26.10;;;18.43;;
5961;SDS011;3007;50.770;0.250;2023-03-01T03:55:51;22.80;;;17.13;;
5961;SDS011;3007;50.770;0.250;2023-03-01T03:58:19;27.67;;;18.87;;
5961;SDS011;3007;50.770;0.250;2023-03-01T04:00:47;26.07;;;18.90;;
5961;SDS011;3007;50.770;0.250;2023-03-01T04:03:16;26.70;;;18.37;;
5961;SDS011;3007;50.770;0.250;2023-03-01T04:05:45;24.60;;;17.33;;
5961;SDS011;3007;50.770;0.250;2023-03-01T04:08:13;25.20;;;18.27;;
5961;SDS011;3007;50.770;0.250;2023-03-01T04:10:41;30.90;;;19.10;;
5961;SDS011;3007;50.770;0.250;2023-03-01T04:13:11;27.93;;;19.00;;
5961;SDS011;3007;50.770;0.250;2023-03-01T04:15:40;27.80;;;18.70;;
5961;SDS011;3007;50.770;0.250;2023-03-01T04:18:14;28.00;;;19.13;;
5961;SDS011;3007;50.770;0.250;2023-03-01T04:20:42;28.97;;;20.47;;
5961;SDS011;3007;50.770;0.250;2023-03-01T04:23:11;30.27;;;19.17;;
5961;SDS011;3007;50.770;0.250;2023-03-01T04:25:44;26.60;;;18.07;;
5961;SDS011;3007;50.770;0.250;2023-03-01T04:28:14;28.10;;;18.57;;
5961;SDS011;3007;50.770;0.250;2023-03-01T04:30:41;27.33;;;18.10;;
5961;SDS011;3007;50.770;0.250;2023-03-01T04:33:09;26.37;;;17.63;;
5961;SDS011;3007;50.770;0.250;2023-03-01T04:35:37;31.90;;;19.30;;
5961;SDS011;3007;50.770;0.250;2023-03-01T04:38:05;28.93;;;18.60;;
5961;SDS011;3007;50.770;0.250;2023-03-01T04:40:33;31.17;;;18.43;;
5961;SDS011;3007;50.770;0.250;2023-03-01T04:43:01;27.33;;;18.13;;
5961;SDS011;3007;50.770;0.250;2023-03-01T04:45:29;28.30;;;18.47;;
5961;SDS011;3007;50.770;0.250;2023-03-01T04:47:59;25.23;;;18.07;;
5961;SDS011;3007;50.770;0.250;2023-03-01T04:50:26;26.53;;;17.60;;
5961;SDS011;3007;50.770;0.250;2023-03-01T04:52:53;29.37;;;18.23;;
5961;SDS011;3007;50.770;0.250;2023-03-01T04:55:23;24.97;;;17.43;;
5961;SDS011;3007;50.770;0.250;2023-03-01T04:57:51;26.47;;;16.93;;
5961;SDS011;3007;50.770;0.250;2023-03-01T05:00:19;24.43;;;17.20;;
5961;SDS011;3007;50.770;0.250;2023-03-01T05:02:48;27.77;;;17.30;;
5961;SDS011;3007;50.770;0.250;2023-03-01T05:05:22;25.00;;;16.70;;
5961;SDS011;3007;50.770;0.250;2023-03-01T05:07:54;24.97;;;16.63;;
5961;SDS011;3007;50.770;0.250;2023-03-01T05:10:22;27.63;;;17.53;;
5961;SDS011;3007;50.770;0.250;2023-03-01T05:12:50;31.23;;;16.63;;
5961;SDS011;3007;50.770;0.250;2023-03-01T05:15:19;24.17;;;16.03;;
5961;SDS011;3007;50.770;0.250;2023-03-01T05:17:50;24.57;;;16.00;;
5961;SDS011;3007;50.770;0.250;2023-03-01T05:20:17;22.83;;;15.30;;
5961;SDS011;3007;50.770;0.250;2023-03-01T05:22:47;25.70;;;16.43;;
5961;SDS011;3007;50.770;0.250;2023-03-01T05:25:14;28.37;;;16.63;;
5961;SDS011;3007;50.770;0.250;2023-03-01T05:27:42;26.33;;;15.60;;
5961;SDS011;3007;50.770;0.250;2023-03-01T05:30:09;25.10;;;15.97;;
5961;SDS011;3007;50.770;0.250;2023-03-01T05:32:43;29.27;;;16.03;;
5961;SDS011;3007;50.770;0.250;2023-03-01T05:35:11;24.70;;;16.80;;
5961;SDS011;3007;50.770;0.250;2023-03-01T05:37:40;24.87;;;16.00;;
5961;SDS011;3007;50.770;0.250;2023-03-01T05:40:09;24.70;;;15.33;;
5961;SDS011;3007;50.770;0.250;2023-03-01T05:42:43;20.37;;;13.97;;
5961;SDS011;3007;50.770;0.250;2023-03-01T05:45:11;25.20;;;15.77;;
5961;SDS011;3007;50.770;0.250;2023-03-01T05:47:38;24.97;;;16.20;;
5961;SDS011;3007;50.770;0.250;2023-03-01T05:50:10;26.67;;;15.23;;
5961;SDS011;3007;50.770;0.250;2023-03-01T05:52:39;24.93;;;15.33;;
5961;SDS011;3007;50.770;0.250;2023-03-01T05:55:09;25.27;;;17.10;;
5961;SDS011;3007;50.770;0.250;2023-03-01T05:57:36;21.60;;;14.80;;
5961;SDS011;3007;50.770;0.250;2023-03-01T06:00:03;28.53;;;15.77;;
5961;SDS011;3007;50.770;0.250;2023-03-01T06:02:31;21.53;;;14.47;;
5961;SDS011;3007;50.770;0.250;2023-03-01T06:04:58;25.33;;;14.73;;
5961;SDS011;3007;50.770;0.250;2023-03-01T06:07:27;23.30;;;14.77;;
5961;SDS011;3007;50.770;0.250;2023-03-01T06:09:53;27.03;;;15.07;;
5961;SDS011;3007;50.770;0.250;2023-03-01T06:12:20;23.57;;;14.33;;
5961;SDS011;3007;50.770;0.250;2023-03-01T06:14:47;23.40;;;14.10;;
5961;SDS011;3007;50.770;0.250;2023-03-01T06:17:14;22.93;;;14.80;;
5961;SDS011;3007;50.770;0.250;2023-03-01T06:19:41;19.83;;;12.90;;
5961;SDS011;3007;50.770;0.250;2023-03-01T06:22:08;23.00;;;14.40;;
5961;SDS011;3007;50.770;0.250;2023-03-01T06:24:36;24.47;;;13.73;;
5961;SDS011;3007;50.770;0.250;2023-03-01T06:27:03;20.97;;;13.87;;
5961;SDS011;3007;50.770;0.250;2023-03-01T06:29:30;21.70;;;13.10;;
5961;SDS011;3007;50.770;0.250;2023-03-01T06:31:57;19.77;;;13.00;;
5961;SDS011;3007;50.770;0.250;2023-03-01T06:34:24;21.33;;;12.70;;
5961;SDS011;3007;50.770;0.250;2023-03-01T06:36:51;22.40;;;12.70;;
5961;SDS011;3007;50.770;0.250;2023-03-01T06:39:18;22.63;;;14.40;;
5961;SDS011;3007;50.770;0.250;2023-03-01T06:41:46;21.83;;;13.20;;
5961;SDS011;3007;50.770;0.250;2023-03-01T06:44:13;20.70;;;12.90;;
5961;SDS011;3007;50.770;0.250;2023-03-01T06:46:40;24.60;;;13.50;;
5961;SDS011;3007;50.770;0.250;2023-03-01T06:49:07;19.63;;;12.67;;
5961;SDS011;3007;50.770;0.250;2023-03-01T06:51:34;21.67;;;13.37;;
5961;SDS011;3007;50.770;0.250;2023-03-01T06:54:02;19.03;;;12.60;;
5961;SDS011;3007;50.770;0.250;2023-03-01T06:56:29;22.53;;;12.57;;
5961;SDS011;3007;50.770;0.250;2023-03-01T06:58:58;20.67;;;11.47;;
5961;SDS011;3007;50.770;0.250;2023-03-01T07:01:26;24.27;;;12.70;;
5961;SDS011;3007;50.770;0.250;2023-03-01T07:03:52;22.10;;;13.00;;
5961;SDS011;3007;50.770;0.250;2023-03-01T07:06:19;21.20;;;11.90;;
5961;SDS011;3007;50.770;0.250;2023-03-01T07:08:47;17.10;;;11.73;;
5961;SDS011;3007;50.770;0.250;2023-03-01T07:11:14;21.10;;;12.80;;
5961;SDS011;3007;50.770;0.250;2023-03-01T07:13:41;18.90;;;12.30;;
5961;SDS011;3007;50.770;0.250;2023-03-01T07:16:09;19.83;;;12.17;;
5961;SDS011;3007;50.770;0.250;2023-03-01T07:18:36;19.53;;;11.43;;
5961;SDS011;3007;50.770;0.250;2023-03-01T07:21:04;20.80;;;11.80;;
5961;SDS011;3007;50.770;0.250;2023-03-01T07:23:31;17.73;;;11.20;;
5961;SDS011;3007;50.770;0.250;2023-03-01T07:25:58;21.73;;;12.00;;
5961;SDS011;3007;50.770;0.250;2023-03-01T07:28:26;20.60;;;11.83;;
5961;SDS011;3007;50.770;0.250;2023-03-01T07:30:54;20.70;;;11.70;;
5961;SDS011;3007;50.770;0.250;2023-03-01T07:33:22;18.13;;;11.77;;
5961;SDS011;3007;50.770;0.250;2023-03-01T07:35:55;17.77;;;11.17;;
5961;SDS011;3007;50.770;0.250;2023-03-01T07:38:24;18.13;;;11.13;;
5961;SDS011;3007;50.770;0.250;2023-03-01T07:40:51;20.37;;;11.50;;
5961;SDS011;3007;50.770;0.250;2023-03-01T07:43:18;19.10;;;11.83;;
5961;SDS011;3007;50.770;0.250;2023-03-01T07:45:45;18.43;;;10.83;;
5961;SDS011;3007;50.770;0.250;2023-03-01T07:48:12;18.53;;;11.47;;
5961;SDS011;3007;50.770;0.250;2023-03-01T07:50:41;17.73;;;11.53;;
5961;SDS011;3007;50.770;0.250;2023-03-01T07:53:08;20.97;;;12.07;;
5961;SDS011;3007;50.770;0.250;2023-03-01T07:55:35;15.20;;;10.97;;
5961;SDS011;3007;50.770;0.250;2023-03-01T07:58:05;21.63;;;10.97;;
5961;SDS011;3007;50.770;0.250;2023-03-01T08:00:32;15.37;;;10.20;;
5961;SDS011;3007;50.770;0.250;2023-03-01T08:02:59;17.17;;;10.73;;
5961;SDS011;3007;50.770;0.250;2023-03-01T08:05:26;18.87;;;10.17;;
5961;SDS011;3007;50.770;0.250;2023-03-01T08:07:55;13.97;;;9.50;;
5961;SDS011;3007;50.770;0.250;2023-03-01T08:10:22;16.90;;;9.73;;
5961;SDS011;3007;50.770;0.250;2023-03-01T08:12:50;17.47;;;10.13;;
5961;SDS011;3007;50.770;0.250;2023-03-01T08:15:18;17.10;;;10.63;;
5961;SDS011;3007;50.770;0.250;2023-03-01T08:17:46;15.93;;;9.87;;
5961;SDS011;3007;50.770;0.250;2023-03-01T08:20:15;17.30;;;10.13;;
5961;SDS011;3007;50.770;0.250;2023-03-01T08:22:43;16.93;;;9.33;;
5961;SDS011;3007;50.770;0.250;2023-03-01T08:25:11;15.47;;;9.50;;
5961;SDS011;3007;50.770;0.250;2023-03-01T08:27:38;20.43;;;11.17;;
5961;SDS011;3007;50.770;0.250;2023-03-01T08:30:05;19.03;;;9.87;;
5961;SDS011;3007;50.770;0.250;2023-03-01T08:32:35;14.07;;;9.53;;
5961;SDS011;3007;50.770;0.250;2023-03-01T08:35:03;15.63;;;9.97;;
5961;SDS011;3007;50.770;0.250;2023-03-01T08:37:31;14.47;;;9.50;;
5961;SDS011;3007;50.770;0.250;2023-03-01T08:39:58;15.73;;;11.30;;
5961;SDS011;3007;50.770;0.250;2023-03-01T08:42:26;13.07;;;9.63;;
5961;SDS011;3007;50.770;0.250;2023-03-01T08:44:53;14.57;;;8.70;;
5961;SDS011;3007;50.770;0.250;2023-03-01T08:47:21;16.37;;;9.40;;
5961;SDS011;3007;50.770;0.250;2023-03-01T08:49:49;11.43;;;8.50;;
5961;SDS011;3007;50.770;0.250;2023-03-01T08:52:16;11.87;;;8.90;;
5961;SDS011;3007;50.770;0.250;2023-03-01T08:54:43;15.63;;;8.83;;
5961;SDS011;3007;50.770;0.250;2023-03-01T08:57:10;16.67;;;9.07;;
5961;SDS011;3007;50.770;0.250;2023-03-01T08:59:39;12.07;;;8.63;;
5961;SDS011;3007;50.770;0.250;2023-03-01T09:02:10;11.43;;;8.63;;
5961;SDS011;3007;50.770;0.250;2023-03-01T09:04:44;18.23;;;9.30;;
5961;SDS011;3007;50.770;0.250;2023-03-01T09:07:13;14.20;;;9.70;;
5961;SDS011;3007;50.770;0.250;2023-03-01T09:09:40;11.70;;;8.37;;
5961;SDS011;3007;50.770;0.250;2023-03-01T09:12:08;11.67;;;8.60;;
5961;SDS011;3007;50.770;0.250;2023-03-01T09:14:35;12.17;;;8.57;;
5961;SDS011;3007;50.770;0.250;2023-03-01T09:17:05;11.17;;;8.80;;
5961;SDS011;3007;50.770;0.250;2023-03-01T09:19:34;14.63;;;10.17;;
5961;SDS011;3007;50.770;0.250;2023-03-01T09:22:03;11.47;;;8.93;;
5961;SDS011;3007;50.770;0.250;2023-03-01T09:24:30;12.97;;;9.30;;
5961;SDS011;3007;50.770;0.250;2023-03-01T09:26:59;15.40;;;8.93;;
5961;SDS011;3007;50.770;0.250;2023-03-01T09:29:26;15.37;;;8.53;;
5961;SDS011;3007;50.770;0.250;2023-03-01T09:31:53;12.87;;;8.70;;
5961;SDS011;3007;50.770;0.250;2023-03-01T09:34:22;10.47;;;8.27;;
5961;SDS011;3007;50.770;0.250;2023-03-01T09:36:49;11.50;;;7.83;;
5961;SDS011;3007;50.770;0.250;2023-03-01T09:39:24;10.43;;;7.73;;
5961;SDS011;3007;50.770;0.250;2023-03-01T09:41:57;12.90;;;8.20;;
5961;SDS011;3007;50.770;0.250;2023-03-01T09:44:31;12.83;;;7.93;;
5961;SDS011;3007;50.770;0.250;2023-03-01T09:47:04;10.27;;;7.50;;
5961;SDS011;3007;50.770;0.250;2023-03-01T09:49:38;14.30;;;8.07;;
5961;SDS011;3007;50.770;0.250;2023-03-01T09:52:17;12.70;;;8.50;;
5961;SDS011;3007;50.770;0.250;2023-03-01T09:54:49;13.37;;;8.13;;
5961;SDS011;3007;50.770;0.250;2023-03-01T09:57:24;12.97;;;8.33;;
5961;SDS011;3007;50.770;0.250;2023-03-01T10:00:01;11.97;;;7.47;;
5961;SDS011;3007;50.770;0.250;2023-03-01T10:02:39;12.87;;;7.93;;
5961;SDS011;3007;50.770;0.250;2023-03-01T10:05:19;11.80;;;7.93;;
5961;SDS011;3007;50.770;0.250;2023-03-01T10:07:58;12.07;;;8.17;;
5961;SDS011;3007;50.770;0.250;2023-03-01T10:10:42;10.43;;;7.87;;
5961;SDS011;3007;50.770;0.250;2023-03-01T10:13:17;15.53;;;8.60;;
5961;SDS011;3007;50.770;0.250;2023-03-01T10:15:50;10.53;;;7.73;;
5961;SDS011;3007;50.770;0.250;2023-03-01T10:18:25;12.33;;;8.17;;
5961;SDS011;3007;50.770;0.250;2023-03-01T10:20:55;12.07;;;7.20;;
5961;SDS011;3007;50.770;0.250;2023-03-01T10:23:24;8.93;;;6.33;;
5961;SDS011;3007;50.770;0.250;2023-03-01T10:25:59;10.07;;;7.20;;
5961;SDS011;3007;50.770;0.250;2023-03-01T10:28:40;12.10;;;7.10;;
5961;SDS011;3007;50.770;0.250;2023-03-01T10:31:16;10.53;;;7.33;;
5961;SDS011;3007;50.770;0.250;2023-03-01T10:33:53;9.97;;;6.93;;
5961;SDS011;3007;50.770;0.250;2023-03-01T10:36:23;10.00;;;5.87;;
5961;SDS011;3007;50.770;0.250;2023-03-01T10:38:52;9.97;;;5.57;;
5961;SDS011;3007;50.770;0.250;2023-03-01T10:41:24;10.17;;;6.20;;
5961;SDS011;3007;50.770;0.250;2023-03-01T10:43:58;9.87;;;5.43;;
5961;SDS011;3007;50.770;0.250;2023-03-01T10:46:26;7.33;;;5.80;;
5961;SDS011;3007;50.770;0.250;2023-03-01T10:49:06;10.07;;;5.37;;
5961;SDS011;3007;50.770;0.250;2023-03-01T10:51:46;9.93;;;5.73;;
5961;SDS011;3007;50.770;0.250;2023-03-01T10:54:18;7.53;;;5.17;;
5961;SDS011;3007;50.770;0.250;2023-03-01T10:56:47;9.60;;;5.53;;
5961;SDS011;3007;50.770;0.250;2023-03-01T10:59:27;7.20;;;4.60;;
5961;SDS011;3007;50.770;0.250;2023-03-01T11:04:57;5.63;;;4.57;;
5961;SDS011;3007;50.770;0.250;2023-03-01T11:07:27;6.00;;;4.27;;
5961;SDS011;3007;50.770;0.250;2023-03-01T11:09:57;6.93;;;4.17;;
5961;SDS011;3007;50.770;0.250;2023-03-01T11:12:24;5.80;;;4.67;;
5961;SDS011;3007;50.770;0.250;2023-03-01T11:14:54;7.27;;;4.90;;
5961;SDS011;3007;50.770;0.250;2023-03-01T11:17:24;7.20;;;4.30;;
5961;SDS011;3007;50.770;0.250;2023-03-01T11:20:05;5.73;;;4.37;;
5961;SDS011;3007;50.770;0.250;2023-03-01T11:22:47;6.73;;;4.03;;
5961;SDS011;3007;50.770;0.250;2023-03-01T11:25:17;5.70;;;3.70;;
5961;SDS011;3007;50.770;0.250;2023-03-01T11:27:50;6.47;;;3.30;;
5961;SDS011;3007;50.770;0.250;2023-03-01T11:30:23;4.83;;;2.93;;
5961;SDS011;3007;50.770;0.250;2023-03-01T11:33:01;5.50;;;3.30;;
5961;SDS011;3007;50.770;0.250;2023-03-01T11:35:37;3.53;;;2.80;;
5961;SDS011;3007;50.770;0.250;2023-03-01T11:38:12;3.73;;;2.97;;
5961;SDS011;3007;50.770;0.250;2023-03-01T11:40:45;3.43;;;2.70;;
5961;SDS011;3007;50.770;0.250;2023-03-01T11:43:22;3.17;;;2.67;;
5961;SDS011;3007;50.770;0.250;2023-03-01T11:46:11;6.07;;;3.30;;
5961;SDS011;3007;50.770;0.250;2023-03-01T11:49:05;5.20;;;2.97;;
5961;SDS011;3007;50.770;0.250;2023-03-01T11:51:58;2.70;;;2.17;;
5961;SDS011;3007;50.770;0.250;2023-03-01T11:54:40;4.13;;;2.50;;
5961;SDS011;3007;50.770;0.250;2023-03-01T11:57:33;3.37;;;2.23;;
5961;SDS011;3007;50.770;0.250;2023-03-01T12:00:21;2.27;;;1.87;;
5961;SDS011;3007;50.770;0.250;2023-03-01T12:03:21;3.97;;;2.00;;
5961;SDS011;3007;50.770;0.250;2023-03-01T12:08:49;2.93;;;1.73;;
5961;SDS011;3007;50.770;0.250;2023-03-01T12:11:27;2.83;;;1.70;;
5961;SDS011;3007;50.770;0.250;2023-03-01T12:14:12;2.73;;;1.73;;
5961;SDS011;3007;50.770;0.250;2023-03-01T12:17:18;1.67;;;1.30;;
5961;SDS011;3007;50.770;0.250;2023-03-01T12:20:09;3.23;;;1.00;;
5961;SDS011;3007;50.770;0.250;2023-03-01T12:22:46;1.97;;;1.20;;
5961;SDS011;3007;50.770;0.250;2023-03-01T12:25:31;1.37;;;0.97;;
5961;SDS011;3007;50.770;0.250;2023-03-01T12:28:07;2.07;;;1.03;;
5961;SDS011;3007;50.770;0.250;2023-03-01T12:31:00;1.13;;;0.90;;
5961;SDS011;3007;50.770;0.250;2023-03-01T12:33:39;1.17;;;1.00;;
5961;SDS011;3007;50.770;0.250;2023-03-01T12:36:23;4.33;;;1.30;;
5961;SDS011;3007;50.770;0.250;2023-03-01T12:39:15;2.23;;;1.37;;
5961;SDS011;3007;50.770;0.250;2023-03-01T12:41:55;2.27;;;1.40;;
5961;SDS011;3007;50.770;0.250;2023-03-01T12:44:42;2.47;;;1.23;;
5961;SDS011;3007;50.770;0.250;2023-03-01T12:47:24;2.40;;;1.57;;
5961;SDS011;3007;50.770;0.250;2023-03-01T12:50:02;4.23;;;1.60;;
5961;SDS011;3007;50.770;0.250;2023-03-01T12:52:41;1.20;;;1.10;;
5961;SDS011;3007;50.770;0.250;2023-03-01T12:55:18;2.33;;;1.40;;
5961;SDS011;3007;50.770;0.250;2023-03-01T12:57:53;4.57;;;1.63;;
5961;SDS011;3007;50.770;0.250;2023-03-01T13:00:30;2.57;;;1.70;;
5961;SDS011;3007;50.770;0.250;2023-03-01T13:03:04;2.60;;;1.40;;
5961;SDS011;3007;50.770;0.250;2023-03-01T13:05:45;4.63;;;1.37;;
5961;SDS011;3007;50.770;0.250;2023-03-01T13:08:22;3.87;;;1.50;;
5961;SDS011;3007;50.770;0.250;2023-03-01T13:10:56;2.73;;;1.40;;
5961;SDS011;3007;50.770;0.250;2023-03-01T13:13:27;2.70;;;1.70;;
5961;SDS011;3007;50.770;0.250;2023-03-01T13:15:56;2.77;;;1.60;;
5961;SDS011;3007;50.770;0.250;2023-03-01T13:18:28;4.67;;;1.57;;
5961;SDS011;3007;50.770;0.250;2023-03-01T13:20:59;1.80;;;1.27;;
5961;SDS011;3007;50.770;0.250;2023-03-01T13:23:29;5.87;;;1.50;;
5961;SDS011;3007;50.770;0.250;2023-03-01T13:26:03;4.90;;;1.97;;
5961;SDS011;3007;50.770;0.250;2023-03-01T13:28:45;2.67;;;1.40;;
5961;SDS011;3007;50.770;0.250;2023-03-01T13:34:41;3.40;;;1.60;;
5961;SDS011;3007;50.770;0.250;2023-03-01T13:37:10;3.80;;;1.80;;
5961;SDS011;3007;50.770;0.250;2023-03-01T13:39:45;2.87;;;1.40;;
5961;SDS011;3007;50.770;0.250;2023-03-01T13:45:03;5.93;;;1.97;;
5961;SDS011;3007;50.770;0.250;2023-03-01T13:47:41;7.10;;;1.60;;
5961;SDS011;3007;50.770;0.250;2023-03-01T13:50:16;4.50;;;1.53;;
5961;SDS011;3007;50.770;0.250;2023-03-01T13:52:47;1.80;;;1.13;;
5961;SDS011;3007;50.770;0.250;2023-03-01T13:55:18;1.57;;;0.93;;
5961;SDS011;3007;50.770;0.250;2023-03-01T13:57:49;2.50;;;1.20;;
5961;SDS011;3007;50.770;0.250;2023-03-01T14:00:30;1.77;;;1.03;;
5961;SDS011;3007;50.770;0.250;2023-03-01T14:03:08;3.57;;;1.40;;
5961;SDS011;3007;50.770;0.250;2023-03-01T14:05:38;7.37;;;1.20;;
5961;SDS011;3007;50.770;0.250;2023-03-01T14:08:17;3.30;;;1.13;;
5961;SDS011;3007;50.770;0.250;2023-03-01T14:10:51;1.40;;;1.20;;
5961;SDS011;3007;50.770;0.250;2023-03-01T14:13:27;2.77;;;1.20;;
5961;SDS011;3007;50.770;0.250;2023-03-01T14:16:07;1.37;;;1.27;;
5961;SDS011;3007;50.770;0.250;2023-03-01T14:18:47;2.40;;;1.37;;
5961;SDS011;3007;50.770;0.250;2023-03-01T14:21:22;2.40;;;1.23;;
5961;SDS011;3007;50.770;0.250;2023-03-01T14:23:50;3.57;;;1.07;;
5961;SDS011;3007;50.770;0.250;2023-03-01T14:26:20;4.87;;;1.60;;
5961;SDS011;3007;50.770;0.250;2023-03-01T14:28:47;2.50;;;1.83;;
5961;SDS011;3007;50.770;0.250;2023-03-01T14:34:16;2.63;;;1.30;;
5961;SDS011;3007;50.770;0.250;2023-03-01T14:36:47;3.00;;;1.23;;
5961;SDS011;3007;50.770;0.250;2023-03-01T14:39:18;4.77;;;1.43;;
5961;SDS011;3007;50.770;0.250;2023-03-01T14:41:46;3.67;;;1.40;;
5961;SDS011;3007;50.770;0.250;2023-03-01T14:44:14;1.60;;;0.90;;
5961;SDS011;3007;50.770;0.250;2023-03-01T14:46:45;2.97;;;1.00;;
5961;SDS011;3007;50.770;0.250;2023-03-01T14:49:14;4.23;;;1.20;;
5961;SDS011;3007;50.770;0.250;2023-03-01T14:51:46;3.90;;;1.30;;
5961;SDS011;3007;50.770;0.250;2023-03-01T14:54:20;6.67;;;1.30;;
5961;SDS011;3007;50.770;0.250;2023-03-01T14:56:50;3.50;;;1.67;;
5961;SDS011;3007;50.770;0.250;2023-03-01T14:59:19;1.20;;;1.10;;
5961;SDS011;3007;50.770;0.250;2023-03-01T15:01:49;2.53;;;1.30;;
5961;SDS011;3007;50.770;0.250;2023-03-01T15:04:17;4.93;;;1.43;;
5961;SDS011;3007;50.770;0.250;2023-03-01T15:06:46;3.20;;;1.30;;
5961;SDS011;3007;50.770;0.250;2023-03-01T15:09:17;2.23;;;1.20;;
5961;SDS011;3007;50.770;0.250;2023-03-01T15:11:45;3.83;;;1.50;;
5961;SDS011;3007;50.770;0.250;2023-03-01T15:14:28;2.07;;;0.90;;
5961;SDS011;3007;50.770;0.250;2023-03-01T15:17:13;1.30;;;1.00;;
5961;SDS011;3007;50.770;0.250;2023-03-01T15:19:47;1.50;;;1.00;;
5961;SDS011;3007;50.770;0.250;2023-03-01T15:22:14;3.30;;;1.13;;
5961;SDS011;3007;50.770;0.250;2023-03-01T15:24:47;3.10;;;1.20;;
5961;SDS011;3007;50.770;0.250;2023-03-01T15:27:18;4.10;;;1.13;;
5961;SDS011;3007;50.770;0.250;2023-03-01T15:29:48;4.10;;;1.40;;
5961;SDS011;3007;50.770;0.250;2023-03-01T15:32:25;3.07;;;0.93;;
5961;SDS011;3007;50.770;0.250;2023-03-01T15:34:56;4.43;;;1.17;;
5961;SDS011;3007;50.770;0.250;2023-03-01T15:37:36;1.77;;;1.10;;